Time;durP1;ratioP1;P1;durP2;ratioP2;P2;SDS_P1;SDS_P2;PMS_P1;PMS_P2;Temp;Humidity;BMP_temperature;BMP_pressure;BME280_temperature;BME280_humidity;BME280_pressure;Samples;Min_cycle;Max_cycle;Signal;HPM_P1;HPM_P2
2022/08/14 00:00:52;;;;;;;1999.90;999.90;;;;;;;20.08;45.69;95167.13;4991848;28;20022;-66
2022/08/14 00:03:19;;;;;;;1999.90;999.90;;;;;;;20.05;45.74;95156.25;4974665;28;20109;-66
2022/08/14 00:05:44;;;;;;;1999.90;999.90;;;;;;;19.88;45.98;95142.13;4994422;28;20054;-66
2022/08/14 00:08:09;;;;;;;1999.90;999.90;;;;;;;19.96;45.59;95143.81;5009354;28;20423;-66
2022/08/14 00:10:35;;;;;;;1999.90;999.90;;;;;;;19.94;45.81;95142.59;4975106;28;20030;-66
2022/08/14 00:13:00;;;;;;;1999.90;999.90;;;;;;;19.57;46.04;95099.22;4974024;28;20034;-66
2022/08/14 00:15:29;;;;;;;1999.90;999.90;;;;;;;19.79;45.90;95127.34;4991049;28;20061;-66
2022/08/14 00:17:55;;;;;;;1999.90;999.90;;;;;;;19.56;46.42;95106.53;4974422;28;20026;-66
2022/08/14 00:20:24;;;;;;;1999.90;999.90;;;;;;;19.86;46.16;95141.72;4973266;28;20026;-66
2022/08/14 00:22:49;;;;;;;1999.90;999.90;;;;;;;19.84;46.29;95132.41;4974648;28;20534;-66
2022/08/14 00:25:14;;;;;;;1999.90;999.90;;;;;;;19.75;46.61;95129.97;4970799;28;20329;-66
2022/08/14 00:27:40;;;;;;;1999.90;999.90;;;;;;;19.72;46.61;95117.22;4985058;28;20105;-65
2022/08/14 00:30:08;;;;;;;1999.90;999.90;;;;;;;19.88;46.80;95138.66;4986116;28;20030;-66
2022/08/14 00:32:34;;;;;;;1999.90;999.90;;;;;;;19.68;46.83;95114.47;4991639;28;20033;-65
2022/08/14 00:35:00;;;;;;;1999.90;999.90;;;;;;;19.84;46.77;95144.00;5009362;28;20021;-65
2022/08/14 00:37:27;;;;;;;1999.90;999.90;;;;;;;19.73;47.12;95135.75;5011397;28;20478;-66
2022/08/14 00:39:52;;;;;;;1999.90;999.90;;;;;;;19.82;47.05;95137.41;5009000;28;20029;-65
2022/08/14 00:42:19;;;;;;;1999.90;999.90;;;;;;;19.83;47.13;95130.88;5010941;28;20033;-65
2022/08/14 00:44:45;;;;;;;1999.90;999.90;;;;;;;19.68;46.84;95097.50;4991659;28;20111;-67
2022/08/14 00:47:13;;;;;;;1999.90;999.90;;;;;;;19.84;46.73;95122.41;4992980;28;20519;-65
2022/08/14 00:49:39;;;;;;;1999.90;999.90;;;;;;;19.64;47.14;95092.03;4989848;28;20092;-66
2022/08/14 00:52:05;;;;;;;1999.90;999.90;;;;;;;19.61;47.31;95098.16;4973940;28;20552;-65
2022/08/14 00:54:30;;;;;;;1999.90;999.90;;;;;;;19.71;47.15;95107.56;4999885;28;20034;-65
2022/08/14 00:56:56;;;;;;;1999.90;999.90;;;;;;;19.70;47.25;95125.66;5010920;28;20036;-65
2022/08/14 00:59:27;;;;;;;1999.90;999.90;;;;;;;19.23;47.73;95054.00;5008477;28;20084;-66
2022/08/14 01:01:56;;;;;;;1999.90;999.90;;;;;;;19.53;47.83;95087.59;4994279;28;20034;-65
2022/08/14 01:04:22;;;;;;;1999.90;999.90;;;;;;;18.97;47.89;95010.81;4997590;28;20113;-65
2022/08/14 01:06:50;;;;;;;1999.90;999.90;;;;;;;19.36;48.33;95083.47;5011033;28;20059;-66
2022/08/14 01:09:18;;;;;;;1999.90;999.90;;;;;;;18.98;48.73;95033.94;5001014;28;20026;-66
2022/08/14 01:11:44;;;;;;;1999.90;999.90;;;;;;;19.20;48.38;95049.34;4990450;28;20044;-65
2022/08/14 01:14:10;;;;;;;1999.90;999.90;;;;;;;19.41;48.32;95091.28;5007586;28;20038;-65
2022/08/14 01:16:35;;;;;;;1999.90;999.90;;;;;;;19.39;48.36;95080.03;5005051;28;20092;-65
2022/08/14 01:21:46;;;;;;;1999.90;999.90;;;;;;;19.38;48.49;95081.19;5008306;28;20118;-65
2022/08/14 01:24:14;;;;;;;1999.90;999.90;;;;;;;19.45;49.03;95100.19;5010250;28;20080;-65
2022/08/14 01:26:41;;;;;;;1999.90;999.90;;;;;;;19.04;49.21;95040.59;5008242;28;20032;-65
2022/08/14 01:29:06;;;;;;;1999.90;999.90;;;;;;;19.08;48.96;95044.13;5007902;28;20496;-65
2022/08/14 01:31:38;;;;;;;1999.90;999.90;;;;;;;19.38;49.08;95091.97;4995350;28;20027;-65
2022/08/14 01:34:05;;;;;;;1999.90;999.90;;;;;;;19.16;49.11;95055.81;4996558;28;20062;-65
2022/08/14 01:36:35;;;;;;;1999.90;999.90;;;;;;;19.34;49.30;95085.75;5010451;28;20080;-66
2022/08/14 01:39:04;;;;;;;1999.90;999.90;;;;;;;19.22;49.39;95065.91;4990387;28;20022;-65
2022/08/14 01:41:30;;;;;;;1999.90;999.90;;;;;;;19.17;49.68;95063.53;4990652;28;20096;-65
2022/08/14 01:44:00;;;;;;;1999.90;999.90;;;;;;;19.21;49.70;95069.75;5002302;28;20515;-65
2022/08/14 01:46:33;;;;;;;1999.90;999.90;;;;;;;19.20;49.37;95065.50;4989606;28;20454;-67
2022/08/14 01:49:00;;;;;;;1999.90;999.90;;;;;;;19.22;49.73;95070.53;4994050;28;20018;-66
2022/08/14 01:51:27;;;;;;;1999.90;999.90;;;;;;;18.92;49.87;95017.28;4993146;28;20038;-66
2022/08/14 01:53:59;;;;;;;1999.90;999.90;;;;;;;19.13;50.09;95056.50;4992496;28;20018;-65
2022/08/14 01:56:39;;;;;;;1999.90;999.90;;;;;;;18.75;50.23;94992.75;5010146;28;20057;-66
2022/08/14 01:59:18;;;;;;;1999.90;999.90;;;;;;;19.05;50.25;95028.69;5007585;28;20105;-65
2022/08/14 02:01:44;;;;;;;1999.90;999.90;;;;;;;19.00;50.28;95023.59;4995623;28;20042;-65
2022/08/14 02:04:10;;;;;;;1999.90;999.90;;;;;;;18.96;50.24;95025.44;4992645;28;20029;-64
2022/08/14 02:06:37;;;;;;;1999.90;999.90;;;;;;;19.04;50.62;95024.44;5009997;28;20029;-65
2022/08/14 02:09:04;;;;;;;1999.90;999.90;;;;;;;18.70;51.11;94991.91;5002751;28;20030;-65
2022/08/14 02:11:29;;;;;;;1999.90;999.90;;;;;;;19.04;50.83;95035.22;4970795;28;20105;-65
2022/08/14 02:14:10;;;;;;;1999.90;999.90;;;;;;;18.76;50.76;94995.06;4974192;28;20110;-65
2022/08/14 02:16:38;;;;;;;1999.90;999.90;;;;;;;18.95;50.49;95016.56;4996500;28;20030;-65
2022/08/14 02:19:06;;;;;;;1999.90;999.90;;;;;;;18.68;50.20;94978.03;4993017;28;20696;-65
2022/08/14 02:21:34;;;;;;;1999.90;999.90;;;;;;;18.82;50.02;94992.84;5009890;28;20045;-65
2022/08/14 02:24:01;;;;;;;1999.90;999.90;;;;;;;18.93;49.63;94997.28;5004225;28;20030;-65
2022/08/14 02:26:33;;;;;;;1999.90;999.90;;;;;;;18.96;49.73;95012.75;4989717;28;20034;-65
2022/08/14 02:29:03;;;;;;;1999.90;999.90;;;;;;;18.88;49.88;95018.34;5007070;28;20026;-65
2022/08/14 02:31:32;;;;;;;1999.90;999.90;;;;;;;18.47;50.02;94971.44;4996062;28;20113;-65
2022/08/14 02:34:12;;;;;;;1999.90;999.90;;;;;;;18.67;50.10;95005.28;4989803;28;20037;-65
2022/08/14 02:36:39;;;;;;;1999.90;999.90;;;;;;;18.41;50.25;94979.81;4999983;28;20062;-65
2022/08/14 02:39:07;;;;;;;1999.90;999.90;;;;;;;18.19;49.94;94954.41;5003618;28;20677;-65
2022/08/14 02:41:34;;;;;;;1999.90;999.90;;;;;;;18.45;50.55;95001.44;4990083;28;20024;-65
2022/08/14 02:44:00;;;;;;;1999.90;999.90;;;;;;;18.46;50.71;95005.66;4990875;28;20383;-65
2022/08/14 02:46:26;;;;;;;1999.90;999.90;;;;;;;18.15;51.30;94977.03;4997468;28;20081;-65
2022/08/14 02:48:52;;;;;;;1999.90;999.90;;;;;;;17.89;51.11;94934.63;4990642;28;20029;-65
2022/08/14 02:51:17;;;;;;;1999.90;999.90;;;;;;;18.24;50.87;94974.88;5009365;28;20053;-64
2022/08/14 02:53:45;;;;;;;1999.90;999.90;;;;;;;18.39;50.89;95000.16;4989082;28;20486;-65
2022/08/14 02:56:18;;;;;;;1999.90;999.90;;;;;;;18.13;50.86;94957.75;5013257;28;20033;-65
2022/08/14 02:58:46;;;;;;;1999.90;999.90;;;;;;;18.24;51.25;94979.50;5008668;28;20053;-65
2022/08/14 03:01:13;;;;;;;1999.90;999.90;;;;;;;18.15;51.71;94977.03;5003168;28;20068;-65
2022/08/14 03:03:38;;;;;;;1999.90;999.90;;;;;;;18.32;51.36;94998.09;4975654;28;20474;-65
2022/08/14 03:06:06;;;;;;;1999.90;999.90;;;;;;;18.14;51.33;94965.47;4998246;28;20037;-65
2022/08/14 03:08:32;;;;;;;1999.90;999.90;;;;;;;18.29;51.67;95000.75;4991958;28;21523;-64
2022/08/14 03:11:06;;;;;;;1999.90;999.90;;;;;;;18.29;51.52;94987.28;4980160;28;20646;-65
2022/08/14 03:13:43;;;;;;;1999.90;999.90;;;;;;;18.12;51.77;94970.44;5009688;28;20057;-65
2022/08/14 03:16:14;;;;;;;1999.90;999.90;;;;;;;18.26;51.85;94982.59;4976282;28;20057;-65
2022/08/14 03:18:41;;;;;;;1999.90;999.90;;;;;;;17.78;52.59;94920.97;4993427;28;20426;-65
2022/08/14 03:21:12;;;;;;;1999.90;999.90;;;;;;;18.16;51.87;94968.56;4973841;28;20057;-66
2022/08/14 03:23:41;;;;;;;1999.90;999.90;;;;;;;18.26;51.74;94964.53;4974142;28;20081;-65
2022/08/14 03:26:11;;;;;;;1999.90;999.90;;;;;;;18.20;51.81;94952.50;4975813;28;20058;-65
2022/08/14 03:28:39;;;;;;;1999.90;999.90;;;;;;;18.26;52.24;94975.28;4998249;28;20018;-65
2022/08/14 03:31:06;;;;;;;1999.90;999.90;;;;;;;18.24;52.07;94963.34;5003582;28;20080;-65
2022/08/14 03:33:31;;;;;;;1999.90;999.90;;;;;;;18.28;52.22;94966.88;4996042;28;20083;-65
2022/08/14 03:35:58;;;;;;;1999.90;999.90;;;;;;;18.28;52.20;94951.50;5012655;28;20474;-65
2022/08/14 03:38:24;;;;;;;1999.90;999.90;;;;;;;18.37;51.99;94956.66;5010057;28;20084;-66
2022/08/14 03:40:49;;;;;;;1999.90;999.90;;;;;;;18.34;51.96;94946.59;5012678;28;20018;-65
2022/08/14 03:43:15;;;;;;;1999.90;999.90;;;;;;;18.26;52.24;94931.44;5009340;28;20348;-66
2022/08/14 03:45:41;;;;;;;1999.90;999.90;;;;;;;18.48;52.41;94952.25;5006259;28;20544;-65
2022/08/14 03:48:19;;;;;;;1999.90;999.90;;;;;;;18.45;52.30;94945.66;4974475;28;20031;-65
2022/08/14 03:50:53;;;;;;;1999.90;999.90;;;;;;;18.32;52.47;94932.69;4973673;28;20023;-65
2022/08/14 03:53:19;;;;;;;1999.90;999.90;;;;;;;18.47;52.31;94956.06;4977172;28;20030;-65
2022/08/14 03:55:46;;;;;;;1999.90;999.90;;;;;;;18.37;52.57;94941.25;5010415;28;20387;-65
2022/08/14 03:58:11;;;;;;;1999.90;999.90;;;;;;;18.55;52.49;94944.28;5009979;28;20031;-65
2022/08/14 04:00:38;;;;;;;1999.90;999.90;;;;;;;18.75;52.00;94968.50;5006667;28;20030;-66
2022/08/14 04:03:06;;;;;;;1999.90;999.90;;;;;;;18.74;51.54;94965.03;4991538;28;20117;-65
2022/08/14 04:05:32;;;;;;;1999.90;999.90;;;;;;;18.72;51.64;94951.13;4993997;28;20029;-66
2022/08/14 04:07:59;;;;;;;1999.90;999.90;;;;;;;18.78;51.24;94959.69;5010196;28;20096;-65
2022/08/14 04:10:25;;;;;;;1999.90;999.90;;;;;;;18.73;51.10;94957.28;4975398;28;20026;-65
2022/08/14 04:12:51;;;;;;;1999.90;999.90;;;;;;;18.43;51.22;94920.22;5007939;28;20482;-65
2022/08/14 04:15:18;;;;;;;1999.90;999.90;;;;;;;18.40;51.33;94927.09;4992216;28;20076;-66
2022/08/14 04:17:44;;;;;;;1999.90;999.90;;;;;;;18.47;51.69;94960.66;4971924;28;20487;-65
2022/08/14 04:20:11;;;;;;;1999.90;999.90;;;;;;;18.32;51.52;94930.00;4974398;28;20030;-65
2022/08/14 04:22:42;;;;;;;1999.90;999.90;;;;;;;18.18;51.64;94911.72;4991934;28;20030;-65
2022/08/14 04:25:09;;;;;;;1999.90;999.90;;;;;;;18.43;51.66;94950.63;4989897;28;20032;-66
2022/08/14 04:27:35;;;;;;;1999.90;999.90;;;;;;;18.43;51.51;94933.69;4991918;28;20118;-65
2022/08/14 04:30:01;;;;;;;1999.90;999.90;;;;;;;18.43;51.47;94933.69;4989301;28;20449;-65
2022/08/14 04:32:26;;;;;;;1999.90;999.90;;;;;;;18.36;51.55;94918.16;4972906;28;20030;-65
2022/08/14 04:34:53;;;;;;;1999.90;999.90;;;;;;;18.53;51.27;94941.19;4992180;28;20423;-65
2022/08/14 04:45:40;;;;;;;1999.90;999.90;;;;;;;18.66;51.02;94901.34;5005941;28;20085;-65
2022/08/14 04:48:13;;;;;;;1999.90;999.90;;;;;;;18.95;50.56;94913.38;4990930;28;20022;-65
2022/08/14 04:50:41;;;;;;;1999.90;999.90;;;;;;;18.67;50.36;94857.09;4991858;28;20022;-65
2022/08/14 04:53:09;;;;;;;1999.90;999.90;;;;;;;19.22;50.00;94911.44;4972804;28;20037;-66
2022/08/14 04:55:35;;;;;;;1999.90;999.90;;;;;;;19.52;49.79;94916.84;5010060;28;20026;-65
2022/08/14 04:58:03;;;;;;;1999.90;999.90;;;;;;;19.52;49.36;94903.38;5010501;28;20028;-65
2022/08/14 05:00:28;;;;;;;1999.90;999.90;;;;;;;19.82;48.70;94929.59;4972963;28;20076;-65
2022/08/14 05:02:54;;;;;;;1999.90;999.90;;;;;;;19.82;48.35;94897.19;4991220;28;20026;-66
2022/08/14 05:05:20;;;;;;;1999.90;999.90;;;;;;;20.03;47.97;94913.63;5007180;28;20104;-65
2022/08/14 05:07:46;;;;;;;1999.90;999.90;;;;;;;20.11;47.86;94901.75;4993288;28;20029;-65
2022/08/14 05:10:11;;;;;;;1999.90;999.90;;;;;;;20.22;47.61;94891.84;4992400;28;20031;-66
2022/08/14 05:12:37;;;;;;;1999.90;999.90;;;;;;;20.50;47.53;94914.88;4993136;28;20033;-65
2022/08/14 05:15:02;;;;;;;1999.90;999.90;;;;;;;20.49;47.14;94891.72;4990933;28;20022;-65
2022/08/14 05:17:28;;;;;;;1999.90;999.90;;;;;;;20.62;46.60;94895.69;5005275;28;20053;-65
2022/08/14 05:19:53;;;;;;;1999.90;999.90;;;;;;;20.63;46.06;94880.25;4992238;28;20034;-65
2022/08/14 05:22:18;;;;;;;1999.90;999.90;;;;;;;20.61;46.60;94877.91;4990824;28;20089;-65
2022/08/14 05:24:48;;;;;;;1999.90;999.90;;;;;;;20.63;46.60;94875.63;5004066;28;20622;-65
2022/08/14 05:27:14;;;;;;;1999.90;999.90;;;;;;;20.97;46.35;94902.50;5006668;28;20394;-66
2022/08/14 05:29:43;;;;;;;1999.90;999.90;;;;;;;20.86;45.79;94866.53;4973585;28;20030;-65
2022/08/14 05:32:09;;;;;;;1999.90;999.90;;;;;;;21.06;45.74;94904.91;4989711;28;20113;-66
2022/08/14 05:34:34;;;;;;;1999.90;999.90;;;;;;;20.75;45.79;94845.59;5008815;28;20112;-67
2022/08/14 05:37:01;;;;;;;1999.90;999.90;;;;;;;21.23;45.74;94898.81;5007882;28;20447;-66
2022/08/14 05:39:26;;;;;;;1999.90;999.90;;;;;;;20.91;45.69;94847.25;4990678;28;20037;-65
2022/08/14 05:41:52;;;;;;;1999.90;999.90;;;;;;;21.32;45.38;94903.91;5007935;28;20095;-65
2022/08/14 05:44:18;;;;;;;1999.90;999.90;;;;;;;21.18;45.20;94881.00;5008066;28;20072;-66
2022/08/14 05:46:43;;;;;;;1999.90;999.90;;;;;;;21.19;45.07;94870.97;4995639;28;20453;-65
2022/08/14 05:49:09;;;;;;;1999.90;999.90;;;;;;;21.56;45.08;94905.22;5003009;28;20029;-67
2022/08/14 05:51:34;;;;;;;1999.90;999.90;;;;;;;21.68;44.96;94907.56;5007765;28;20157;-65
2022/08/14 05:54:00;;;;;;;1999.90;999.90;;;;;;;21.73;44.63;94899.09;5010086;28;20060;-66
2022/08/14 05:56:25;;;;;;;1999.90;999.90;;;;;;;21.85;44.19;94906.09;4981658;28;20064;-65
2022/08/14 05:58:52;;;;;;;1999.90;999.90;;;;;;;22.03;44.30;94915.06;4997713;28;20026;-65
2022/08/14 06:01:17;;;;;;;1999.90;999.90;;;;;;;22.02;43.84;94898.03;4980721;28;20026;-67
2022/08/14 06:03:43;;;;;;;1999.90;999.90;;;;;;;21.85;43.38;94849.22;5009680;28;20029;-65
2022/08/14 06:06:08;;;;;;;1999.90;999.90;;;;;;;22.40;42.99;94916.72;5007425;28;20034;-65
2022/08/14 06:08:33;;;;;;;1999.90;999.90;;;;;;;22.46;42.95;94926.00;5009997;28;20032;-66
2022/08/14 06:11:03;;;;;;;1999.90;999.90;;;;;;;22.40;42.40;94884.19;4976261;28;20033;-68
2022/08/14 06:13:29;;;;;;;1999.90;999.90;;;;;;;22.66;42.33;94902.78;5000453;28;20030;-66
2022/08/14 06:15:55;;;;;;;1999.90;999.90;;;;;;;22.70;42.02;94898.16;4971956;28;20028;-65
2022/08/14 06:18:20;;;;;;;1999.90;999.90;;;;;;;22.94;41.81;94918.31;4989171;28;20442;-66
2022/08/14 06:20:45;;;;;;;1999.90;999.90;;;;;;;22.75;41.73;94878.78;4990279;28;20097;-65
2022/08/14 06:23:11;;;;;;;1999.90;999.90;;;;;;;23.17;41.38;94925.28;4987766;28;20045;-65
2022/08/14 06:25:36;;;;;;;1999.90;999.90;;;;;;;23.28;40.98;94920.59;4993158;28;20034;-65
2022/08/14 06:28:02;;;;;;;1999.90;999.90;;;;;;;23.06;41.40;94865.59;4994102;28;20026;-63
2022/08/14 06:30:31;;;;;;;1999.90;999.90;;;;;;;23.38;40.55;94913.59;4988811;28;20030;-63
2022/08/14 06:32:56;;;;;;;1999.90;999.90;;;;;;;23.61;40.38;94924.78;4991543;28;20537;-63
2022/08/14 06:35:22;;;;;;;1999.90;999.90;;;;;;;23.70;40.15;94930.63;5006556;28;20030;-64
2022/08/14 06:37:50;;;;;;;1999.90;999.90;;;;;;;23.83;40.04;94923.56;4972302;28;20070;-63
2022/08/14 06:40:24;;;;;;;1999.90;999.90;;;;;;;23.59;39.25;94878.25;4989158;28;20022;-64
2022/08/14 06:42:51;;;;;;;1999.90;999.90;;;;;;;23.80;39.58;94877.41;4972626;28;20709;-63
2022/08/14 06:45:17;;;;;;;1999.90;999.90;;;;;;;24.02;39.19;94906.03;4988997;28;20030;-64
2022/08/14 06:47:44;;;;;;;1999.90;999.90;;;;;;;24.11;38.73;94900.19;4989005;28;20084;-63
2022/08/14 06:50:14;;;;;;;1999.90;999.90;;;;;;;24.14;37.64;94885.78;4991191;28;20094;-63
2022/08/14 06:52:40;;;;;;;1999.90;999.90;;;;;;;24.10;37.77;94849.69;4991267;28;20359;-63
2022/08/14 06:55:06;;;;;;;1999.90;999.90;;;;;;;24.24;37.50;94860.47;5007139;28;20034;-64
2022/08/14 06:57:37;;;;;;;1999.90;999.90;;;;;;;24.42;37.74;94890.31;4989528;28;20042;-63
2022/08/14 07:00:12;;;;;;;1999.90;999.90;;;;;;;24.58;37.13;94887.84;5004649;28;20029;-64
2022/08/14 07:08:18;;;;;;;1999.90;999.90;;;;;;;24.74;36.01;94890.06;4977268;28;20041;-65
2022/08/14 07:10:48;;;;;;;1999.90;999.90;;;;;;;24.61;36.15;94889.00;4972438;28;20025;-65
2022/08/14 07:13:17;;;;;;;1999.90;999.90;;;;;;;24.93;35.98;94888.75;5003180;28;20026;-64
2022/08/14 07:15:45;;;;;;;1999.90;999.90;;;;;;;24.59;36.28;94864.94;4971955;28;20023;-64
2022/08/14 07:18:12;;;;;;;1999.90;999.90;;;;;;;25.04;37.10;94878.53;4989549;28;20034;-64
2022/08/14 07:20:39;;;;;;;1999.90;999.90;;;;;;;25.40;36.45;94886.38;4989116;28;20037;-63
2022/08/14 07:23:06;;;;;;;1999.90;999.90;;;;;;;24.81;35.36;94813.81;4968762;28;20399;-65
2022/08/14 07:25:33;;;;;;;1999.90;999.90;;;;;;;25.51;35.30;94862.50;4970080;28;20027;-66
2022/08/14 07:28:00;;;;;;;1999.90;999.90;;;;;;;25.55;34.84;94846.91;5002500;28;20022;-66
2022/08/14 07:30:25;;;;;;;1999.90;999.90;;;;;;;25.41;35.24;94845.13;4988822;28;20039;-65
2022/08/14 07:32:50;;;;;;;1999.90;999.90;;;;;;;25.76;34.69;94842.41;5005263;28;20041;-65
2022/08/14 07:35:16;;;;;;;1999.90;999.90;;;;;;;25.66;34.54;94831.22;5007210;28;20022;-66
2022/08/14 07:37:41;;;;;;;1999.90;999.90;;;;;;;25.68;34.37;94842.44;4989005;28;20089;-65
2022/08/14 07:40:07;;;;;;;1999.90;999.90;;;;;;;25.60;33.90;94842.97;5006838;28;20112;-65
2022/08/14 07:42:33;;;;;;;1999.90;999.90;;;;;;;25.56;34.12;94834.06;5009738;28;20471;-66
2022/08/14 07:44:59;;;;;;;1999.90;999.90;;;;;;;25.76;34.28;94836.97;5010516;28;20459;-66
2022/08/14 07:47:24;;;;;;;1999.90;999.90;;;;;;;25.73;33.91;94816.72;4992380;28;20129;-66
2022/08/14 07:50:11;;;;;;;1999.90;999.90;;;;;;;25.72;33.92;94836.97;4991994;28;20117;-66
2022/08/14 07:52:37;;;;;;;1999.90;999.90;;;;;;;25.73;34.05;94816.72;4992513;28;20045;-66
2022/08/14 07:55:02;;;;;;;1999.90;999.90;;;;;;;25.73;34.25;94819.44;4990033;28;20424;-66
2022/08/14 07:57:27;;;;;;;1999.90;999.90;;;;;;;26.22;33.69;94806.34;5012084;28;20113;-66
2022/08/14 07:59:53;;;;;;;1999.90;999.90;;;;;;;25.70;33.61;94795.00;4988966;28;20026;-67
2022/08/14 08:02:19;;;;;;;1999.90;999.90;;;;;;;25.68;33.47;94773.59;4992385;28;20441;-66
2022/08/14 08:04:48;;;;;;;1999.90;999.90;;;;;;;26.17;33.22;94818.47;4999560;28;20127;-66
2022/08/14 08:07:13;;;;;;;1999.90;999.90;;;;;;;26.31;33.27;94817.50;4992701;28;20053;-66
2022/08/14 08:09:47;;;;;;;1999.90;999.90;;;;;;;26.69;33.18;94828.22;5009964;28;20387;-66
2022/08/14 08:12:14;;;;;;;1999.90;999.90;;;;;;;26.31;33.46;94825.69;5008836;28;20018;-67
2022/08/14 08:14:42;;;;;;;1999.90;999.90;;;;;;;26.60;33.04;94836.91;4974298;28;20044;-65
2022/08/14 08:17:08;;;;;;;1999.90;999.90;;;;;;;26.79;33.00;94818.31;4992786;28;20027;-65
2022/08/14 08:19:33;;;;;;;1999.90;999.90;;;;;;;26.51;32.49;94800.44;4992639;28;20029;-64
2022/08/14 08:22:02;;;;;;;1999.90;999.90;;;;;;;26.39;32.79;94827.09;4988913;28;20107;-66
2022/08/14 08:24:27;;;;;;;1999.90;999.90;;;;;;;26.26;32.66;94792.63;4987589;28;20108;-66
2022/08/14 08:26:53;;;;;;;1999.90;999.90;;;;;;;26.55;32.52;94826.47;4991871;28;20414;-65
2022/08/14 08:29:20;;;;;;;1999.90;999.90;;;;;;;26.83;32.20;94821.75;5011493;28;20026;-65
2022/08/14 08:31:50;;;;;;;1999.90;999.90;;;;;;;26.57;32.01;94815.94;4995928;28;20027;-65
2022/08/14 08:34:17;;;;;;;1999.90;999.90;;;;;;;27.05;31.74;94805.75;4966340;28;20258;-65
2022/08/14 08:36:43;;;;;;;1999.90;999.90;;;;;;;26.77;31.85;94813.28;4993762;28;20022;-65
2022/08/14 08:39:09;;;;;;;1999.90;999.90;;;;;;;26.98;30.95;94811.34;5008803;28;20071;-65
2022/08/14 08:41:46;;;;;;;1999.90;999.90;;;;;;;26.96;31.21;94814.47;5009685;28;20487;-65
2022/08/14 08:44:12;;;;;;;1999.90;999.90;;;;;;;27.42;31.22;94813.63;4982161;28;20516;-65
2022/08/14 08:46:38;;;;;;;1999.90;999.90;;;;;;;27.44;30.89;94822.19;4996799;28;20053;-65
2022/08/14 08:49:05;;;;;;;1999.90;999.90;;;;;;;27.31;31.12;94807.63;4991907;28;20110;-65
2022/08/14 08:51:34;;;;;;;1999.90;999.90;;;;;;;27.65;30.64;94828.44;5000105;28;20030;-65
2022/08/14 08:54:03;;;;;;;1999.90;999.90;;;;;;;27.51;29.86;94818.53;5007474;28;20026;-65
2022/08/14 08:56:50;;;;;;;1999.90;999.90;;;;;;;27.25;30.76;94768.34;4993554;28;20022;-65
2022/08/14 08:59:19;;;;;;;1999.90;999.90;;;;;;;27.65;30.61;94810.06;5010806;28;20099;-65
2022/08/14 09:01:57;;;;;;;1999.90;999.90;;;;;;;27.21;30.16;94748.53;5006948;28;20113;-66
2022/08/14 09:04:30;;;;;;;1999.90;999.90;;;;;;;27.85;30.25;94823.72;4990418;28;20062;-65
2022/08/14 09:06:56;;;;;;;1999.90;999.90;;;;;;;27.73;29.91;94825.13;4987198;28;20372;-65
2022/08/14 09:09:24;;;;;;;1999.90;999.90;;;;;;;27.52;30.13;94808.38;5010988;28;20032;-65
2022/08/14 09:11:53;;;;;;;1999.90;999.90;;;;;;;27.80;30.16;94813.31;5008278;28;20494;-65
2022/08/14 09:14:20;;;;;;;1999.90;999.90;;;;;;;27.89;28.92;94808.00;5008561;28;20077;-65
2022/08/14 09:16:46;;;;;;;1999.90;999.90;;;;;;;27.52;29.67;94784.56;4996151;28;20057;-65
2022/08/14 09:19:11;;;;;;;1999.90;999.90;;;;;;;27.82;30.18;94802.69;4999674;28;20486;-65
2022/08/14 09:21:38;;;;;;;1999.90;999.90;;;;;;;27.98;29.54;94804.69;4997161;28;20081;-65
2022/08/14 09:24:05;;;;;;;1999.90;999.90;;;;;;;28.16;29.50;94805.09;4997589;28;20075;-65
2022/08/14 09:26:31;;;;;;;1999.90;999.90;;;;;;;28.08;29.20;94770.13;4992809;28;20457;-65
2022/08/14 09:28:56;;;;;;;1999.90;999.90;;;;;;;28.30;29.35;94801.22;5008025;28;20110;-65
2022/08/14 09:31:23;;;;;;;1999.90;999.90;;;;;;;28.66;29.18;94806.66;4998698;28;20030;-65
2022/08/14 09:34:02;;;;;;;1999.90;999.90;;;;;;;28.65;28.98;94802.38;4973070;28;20775;-65
2022/08/14 09:36:33;;;;;;;1999.90;999.90;;;;;;;28.79;28.95;94804.00;4998483;28;20034;-65
2022/08/14 09:39:28;;;;;;;1999.90;999.90;;;;;;;28.94;28.44;94804.41;5010580;28;20029;-65
2022/08/14 09:42:15;;;;;;;1999.90;999.90;;;;;;;28.81;28.42;94796.09;5007796;28;20084;-65
2022/08/14 09:45:24;;;;;;;1999.90;999.90;;;;;;;28.97;28.31;94793.38;5008062;28;20037;-66
2022/08/14 09:47:56;;;;;;;1999.90;999.90;;;;;;;28.85;28.63;94799.53;4967957;28;20046;-66
2022/08/14 09:50:27;;;;;;;1999.90;999.90;;;;;;;28.88;27.26;94803.38;4971474;28;20187;-66
2022/08/14 09:53:02;;;;;;;1999.90;999.90;;;;;;;28.98;26.90;94778.50;4990649;28;20030;-66
2022/08/14 09:55:32;;;;;;;1999.90;999.90;;;;;;;29.03;27.04;94755.28;4988516;28;20023;-67
2022/08/14 09:58:10;;;;;;;1999.90;999.90;;;;;;;29.24;27.05;94804.00;5001368;28;20033;-67
2022/08/14 10:00:59;;;;;;;1999.90;999.90;;;;;;;29.38;26.61;94796.56;4972290;28;20026;-67
2022/08/14 10:03:32;;;;;;;1999.90;999.90;;;;;;;29.40;25.57;94797.69;4988721;28;20037;-68
2022/08/14 10:06:12;;;;;;;1999.90;999.90;;;;;;;29.33;25.69;94761.50;4989762;28;20033;-66
2022/08/14 10:08:51;;;;;;;1999.90;999.90;;;;;;;29.44;26.42;94781.16;4997695;28;20057;-68
2022/08/14 10:11:19;;;;;;;1999.90;999.90;;;;;;;29.13;27.19;94778.13;5008999;28;20025;-69
2022/08/14 10:13:50;;;;;;;1999.90;999.90;;;;;;;29.23;26.28;94763.34;4989415;28;20045;-70
2022/08/14 10:16:16;;;;;;;1999.90;999.90;;;;;;;28.93;26.40;94724.22;4989025;28;20122;-70
2022/08/14 10:18:41;;;;;;;1999.90;999.90;;;;;;;29.28;25.48;94727.22;5001264;28;20113;-69
2022/08/14 10:21:08;;;;;;;1999.90;999.90;;;;;;;29.67;25.20;94752.72;5000627;28;20485;-69
2022/08/14 10:23:43;;;;;;;1999.90;999.90;;;;;;;29.63;25.11;94763.78;4988691;28;20025;-67
2022/08/14 10:26:09;;;;;;;1999.90;999.90;;;;;;;29.99;24.98;94768.19;4988384;28;20029;-70
2022/08/14 10:28:41;;;;;;;1999.90;999.90;;;;;;;29.71;24.27;94764.34;5008078;28;20112;-67
2022/08/14 10:31:30;;;;;;;1999.90;999.90;;;;;;;29.79;25.02;94760.22;4997744;28;20080;-68
2022/08/14 10:34:07;;;;;;;1999.90;999.90;;;;;;;29.68;25.02;94744.06;4994324;28;20026;-64
2022/08/14 10:36:40;;;;;;;1999.90;999.90;;;;;;;29.29;25.44;94720.53;5001184;28;20109;-67
2022/08/14 10:39:18;;;;;;;1999.90;999.90;;;;;;;29.90;24.92;94748.91;4989924;28;20026;-67
2022/08/14 10:41:45;;;;;;;1999.90;999.90;;;;;;;29.69;25.11;94742.88;5009613;28;20030;-66
2022/08/14 10:44:15;;;;;;;1999.90;999.90;;;;;;;29.41;25.24;94752.66;5006359;28;20129;-64
2022/08/14 10:46:57;;;;;;;1999.90;999.90;;;;;;;29.84;24.16;94737.72;4995019;28;20026;-65
2022/08/14 10:49:25;;;;;;;1999.90;999.90;;;;;;;29.42;25.03;94735.00;5005223;28;20029;-65
2022/08/14 10:52:04;;;;;;;1999.90;999.90;;;;;;;29.88;24.99;94737.59;4997249;28;20057;-65
2022/08/14 10:54:35;;;;;;;1999.90;999.90;;;;;;;29.78;25.26;94740.22;4993341;28;20033;-65
2022/08/14 10:57:23;;;;;;;1999.90;999.90;;;;;;;29.56;25.04;94727.59;4984757;28;20022;-67
2022/08/14 10:59:51;;;;;;;1999.90;999.90;;;;;;;30.22;24.86;94721.25;4998734;28;20037;-66
2022/08/14 11:02:20;;;;;;;1999.90;999.90;;;;;;;30.31;23.45;94719.84;4987832;28;20554;-65
2022/08/14 11:04:59;;;;;;;1999.90;999.90;;;;;;;30.61;23.07;94721.16;5004120;28;20064;-66
2022/08/14 11:07:25;;;;;;;1999.90;999.90;;;;;;;30.55;23.92;94716.22;4976473;28;20034;-64
2022/08/14 11:09:59;;;;;;;1999.90;999.90;;;;;;;30.70;23.80;94704.81;4986721;28;20026;-64
2022/08/14 11:12:26;;;;;;;1999.90;999.90;;;;;;;30.22;24.67;94715.00;4987481;28;20372;-64
2022/08/14 11:15:00;;;;;;;1999.90;999.90;;;;;;;30.13;24.08;94701.97;4988760;28;20040;-64
2022/08/14 11:17:33;;;;;;;1999.90;999.90;;;;;;;30.47;22.78;94692.25;4991791;28;20474;-63